Time;durP1;ratioP1;P1;durP2;ratioP2;P2;SDS_P1;SDS_P2;PMS_P1;PMS_P2;Temp;Humidity;BMP_temperature;BMP_pressure;BME280_temperature;BME280_humidity;BME280_pressure;Samples;Min_cycle;Max_cycle;Signal;HPM_P1;HPM_P2
2022/07/14 00:00:45;;;;;;;6.27;4.37;;;15.60;99.90;;;;;;5081811;28;20489;-82
2022/07/14 00:03:13;;;;;;;5.57;3.60;;;15.70;99.90;;;;;;5095221;28;20405;-83
2022/07/14 00:05:41;;;;;;;6.32;3.92;;;15.70;99.90;;;;;;5076876;28;20469;-83
2022/07/14 00:08:09;;;;;;;6.95;3.47;;;15.70;99.90;;;;;;5084678;28;20431;-83
2022/07/14 00:10:36;;;;;;;5.77;3.60;;;15.70;99.90;;;;;;5097773;28;20412;-83
2022/07/14 00:13:04;;;;;;;6.72;4.00;;;15.70;99.90;;;;;;5082479;28;20461;-83
2022/07/14 00:15:32;;;;;;;7.17;3.80;;;15.70;99.90;;;;;;5096399;28;20471;-83
2022/07/14 00:18:00;;;;;;;7.50;3.55;;;15.70;99.90;;;;;;5108430;28;20424;-83
2022/07/14 00:23:24;;;;;;;7.53;2.90;;;15.60;99.90;;;;;;5008629;28;20421;-84
2022/07/14 00:25:52;;;;;;;8.93;3.60;;;15.60;99.90;;;;;;4999149;28;20465;-84
2022/07/14 00:28:20;;;;;;;5.10;3.25;;;15.60;99.90;;;;;;5005829;28;20417;-84
2022/07/14 00:30:52;;;;;;;6.60;3.50;;;15.60;99.90;;;;;;5019537;28;20423;-83
2022/07/14 00:33:20;;;;;;;6.03;3.55;;;15.60;99.90;;;;;;5004372;28;20396;-83
2022/07/14 00:35:48;;;;;;;3.85;2.50;;;15.70;99.90;;;;;;5004138;28;20871;-83
2022/07/14 00:38:15;;;;;;;3.88;2.10;;;15.70;99.90;;;;;;5018283;28;20478;-83
2022/07/14 00:40:43;;;;;;;4.90;1.90;;;15.70;99.90;;;;;;5005701;28;20458;-83
2022/07/14 00:43:11;;;;;;;5.80;2.03;;;15.70;99.90;;;;;;5002642;28;20407;-83
2022/07/14 00:45:39;;;;;;;7.70;2.00;;;15.70;99.90;;;;;;5006010;28;20440;-83
2022/07/14 00:48:06;;;;;;;6.10;1.98;;;15.70;99.90;;;;;;5000129;28;20389;-83
2022/07/14 00:50:35;;;;;;;3.27;2.17;;;15.70;99.90;;;;;;5020418;28;20402;-82
2022/07/14 00:53:07;;;;;;;5.73;1.93;;;15.70;99.90;;;;;;5019155;28;20403;-79
2022/07/14 00:55:36;;;;;;;2.45;1.63;;;15.60;99.90;;;;;;4997428;28;20890;-83
2022/07/14 00:58:04;;;;;;;3.85;1.77;;;15.60;99.90;;;;;;5004730;28;20408;-82
2022/07/14 01:00:32;;;;;;;4.00;1.88;;;15.70;99.90;;;;;;5002050;28;20405;-84
2022/07/14 01:03:00;;;;;;;7.20;2.30;;;15.60;99.90;;;;;;5001445;28;20385;-83
2022/07/14 01:05:28;;;;;;;4.95;1.70;;;15.60;99.90;;;;;;5016121;28;20399;-84
2022/07/14 01:07:56;;;;;;;3.65;1.92;;;15.60;99.90;;;;;;4995103;28;20923;-83
2022/07/14 01:10:24;;;;;;;5.63;1.90;;;15.60;99.90;;;;;;5017835;28;20397;-83
2022/07/14 01:12:52;;;;;;;6.53;2.05;;;15.60;99.90;;;;;;4998970;28;20399;-83
2022/07/14 01:15:23;;;;;;;5.47;1.90;;;15.60;99.90;;;;;;5007519;28;20405;-83
2022/07/14 01:17:51;;;;;;;5.35;1.42;;;15.60;99.90;;;;;;5007244;28;20966;-83
2022/07/14 01:20:21;;;;;;;5.47;1.60;;;15.60;99.90;;;;;;4996750;28;20411;-82
2022/07/14 01:22:50;;;;;;;4.28;1.70;;;15.60;99.90;;;;;;5002203;28;20432;-83
2022/07/14 01:25:20;;;;;;;5.45;1.70;;;15.60;99.90;;;;;;4999934;28;20518;-83
2022/07/14 01:27:49;;;;;;;4.63;2.00;;;15.60;99.90;;;;;;4994919;28;20399;-84
2022/07/14 01:30:16;;;;;;;4.78;1.98;;;15.60;99.90;;;;;;4995297;28;20426;-84
2022/07/14 01:32:45;;;;;;;4.90;2.05;;;15.60;99.90;;;;;;4992076;28;20389;-83
2022/07/14 01:35:13;;;;;;;5.80;1.90;;;15.60;99.90;;;;;;5005846;28;20407;-83
2022/07/14 01:37:41;;;;;;;7.25;2.08;;;15.60;99.90;;;;;;5017181;28;20490;-83
2022/07/14 01:40:10;;;;;;;8.38;2.08;;;15.60;99.90;;;;;;5017238;28;20411;-83
2022/07/14 01:42:40;;;;;;;5.43;2.15;;;15.60;99.90;;;;;;4994914;28;20469;-83
2022/07/14 01:45:12;;;;;;;4.88;1.80;;;15.60;99.90;;;;;;5011316;28;20418;-83
2022/07/14 01:47:40;;;;;;;6.57;1.83;;;15.50;99.90;;;;;;5017253;28;20405;-83
2022/07/14 01:50:08;;;;;;;3.85;1.70;;;15.60;99.90;;;;;;5011167;28;20896;-84
2022/07/14 01:52:39;;;;;;;6.77;1.80;;;15.60;99.90;;;;;;5010408;28;20411;-83
2022/07/14 01:55:08;;;;;;;7.82;1.77;;;15.60;99.90;;;;;;5026900;28;20395;-82
2022/07/14 01:57:36;;;;;;;4.45;1.90;;;15.50;99.90;;;;;;5006987;28;20404;-83
2022/07/14 02:00:05;;;;;;;4.10;1.70;;;15.50;99.90;;;;;;5021663;28;20430;-83
2022/07/14 02:02:44;;;;;;;2.55;1.60;;;15.60;99.90;;;;;;5015856;28;20738;-83
2022/07/14 02:05:13;;;;;;;4.40;1.60;;;15.50;99.90;;;;;;5017258;28;20424;-84
2022/07/14 02:07:42;;;;;;;4.53;1.67;;;15.60;99.90;;;;;;4994836;28;20417;-83
2022/07/14 02:13:06;;;;;;;2.42;1.30;;;15.60;99.90;;;;;;5001567;28;20391;-83
2022/07/14 02:15:34;;;;;;;5.32;1.60;;;15.50;99.90;;;;;;5026964;28;20395;-82
2022/07/14 02:18:03;;;;;;;6.80;2.10;;;15.50;99.90;;;;;;5003989;28;20901;-82
2022/07/14 02:20:31;;;;;;;7.25;2.47;;;15.50;99.90;;;;;;5012219;28;20925;-83
2022/07/14 02:22:59;;;;;;;4.45;2.20;;;15.50;99.90;;;;;;5005878;28;20447;-82
2022/07/14 02:25:27;;;;;;;7.68;2.45;;;15.60;99.90;;;;;;4996192;28;22587;-82
2022/07/14 02:27:55;;;;;;;3.97;1.90;;;15.50;99.90;;;;;;5017973;28;20409;-83
2022/07/14 02:30:22;;;;;;;3.50;2.35;;;15.50;99.90;;;;;;5003292;28;20720;-84
2022/07/14 02:32:50;;;;;;;5.47;3.28;;;15.50;99.90;;;;;;5003595;28;20491;-84
2022/07/14 02:35:18;;;;;;;3.92;3.10;;;15.50;99.90;;;;;;5002265;28;20970;-84
2022/07/14 02:37:46;;;;;;;5.57;3.42;;;15.50;99.90;;;;;;5017458;28;20407;-83
2022/07/14 02:40:14;;;;;;;4.78;3.00;;;15.50;99.90;;;;;;5010314;28;20403;-83
2022/07/14 02:42:43;;;;;;;7.90;3.50;;;15.50;99.90;;;;;;4991174;28;21003;-83
2022/07/14 02:45:10;;;;;;;7.78;4.85;;;15.60;99.90;;;;;;5003358;28;20408;-84
2022/07/14 02:47:39;;;;;;;10.90;7.70;;;15.60;99.90;;;;;;5017510;28;20693;-83
2022/07/14 02:50:07;;;;;;;8.50;7.35;;;15.60;99.90;;;;;;4992374;28;20392;-81
2022/07/14 02:52:38;;;;;;;13.70;10.18;;;15.60;99.90;;;;;;5021125;28;20446;-84
2022/07/14 02:55:07;;;;;;;9.37;6.87;;;15.60;99.90;;;;;;5026992;28;20677;-83
2022/07/14 02:57:38;;;;;;;11.80;8.90;;;15.50;99.90;;;;;;4999341;28;20391;-83
2022/07/14 03:00:08;;;;;;;7.75;5.13;;;15.60;99.90;;;;;;5004497;28;20403;-83
2022/07/14 03:02:37;;;;;;;9.40;5.80;;;15.50;99.90;;;;;;5004047;28;20555;-82
2022/07/14 03:05:05;;;;;;;6.43;4.90;;;15.50;99.90;;;;;;5016680;28;20477;-82
2022/07/14 03:07:34;;;;;;;5.90;4.13;;;15.50;99.90;;;;;;4993633;28;20434;-82
2022/07/14 03:10:04;;;;;;;7.60;4.30;;;15.60;99.90;;;;;;4993829;28;20458;-81
2022/07/14 03:12:32;;;;;;;7.07;3.92;;;15.60;99.90;;;;;;4998352;28;20410;-83
2022/07/14 03:15:00;;;;;;;7.18;4.75;;;15.60;99.90;;;;;;5015814;28;20484;-84
2022/07/14 03:17:28;;;;;;;6.53;4.10;;;15.60;99.90;;;;;;4997320;28;20912;-83
2022/07/14 03:19:56;;;;;;;5.68;4.57;;;15.60;99.90;;;;;;5009559;28;20473;-84
2022/07/14 03:22:24;;;;;;;6.88;4.40;;;15.60;99.90;;;;;;4998778;28;20447;-82
2022/07/14 03:24:53;;;;;;;5.60;4.97;;;15.60;99.90;;;;;;5015354;28;20404;-84
2022/07/14 03:27:20;;;;;;;6.53;5.13;;;15.60;99.90;;;;;;5017803;28;20418;-84
2022/07/14 03:29:49;;;;;;;7.57;5.78;;;15.60;99.90;;;;;;4990117;28;21011;-84
2022/07/14 03:32:17;;;;;;;6.80;6.10;;;15.60;99.90;;;;;;4987731;28;20410;-83
2022/07/14 03:34:45;;;;;;;7.18;6.47;;;15.60;99.90;;;;;;5018242;28;20443;-83
2022/07/14 03:37:13;;;;;;;9.93;6.50;;;15.60;99.90;;;;;;4993470;28;20411;-83
2022/07/14 03:39:49;;;;;;;7.85;7.05;;;15.60;99.90;;;;;;4992530;28;20407;-83
2022/07/14 03:42:17;;;;;;;9.13;7.40;;;15.60;99.90;;;;;;4991973;28;20438;-82
2022/07/14 03:44:49;;;;;;;7.67;6.67;;;15.70;99.90;;;;;;5003870;28;20451;-83
2022/07/14 03:47:18;;;;;;;8.23;7.43;;;15.60;99.90;;;;;;5016728;28;20775;-83
2022/07/14 03:49:46;;;;;;;7.73;6.40;;;15.60;99.90;;;;;;5002282;28;20419;-82
2022/07/14 03:52:19;;;;;;;8.03;6.83;;;15.60;99.90;;;;;;5015433;28;20402;-84
2022/07/14 03:54:49;;;;;;;9.80;7.55;;;15.70;99.90;;;;;;4990669;28;20397;-82
2022/07/14 03:57:20;;;;;;;9.97;8.97;;;15.60;99.90;;;;;;4993083;28;20427;-82
2022/07/14 03:59:48;;;;;;;11.45;9.63;;;15.60;99.90;;;;;;5016884;28;20471;-83
2022/07/14 04:02:17;;;;;;;12.63;10.20;;;15.60;99.90;;;;;;4990542;28;20415;-83
2022/07/14 04:04:46;;;;;;;11.57;9.50;;;15.60;99.90;;;;;;5012446;28;20407;-83
2022/07/14 04:07:14;;;;;;;10.55;8.98;;;15.60;99.90;;;;;;4995099;28;20411;-83
2022/07/14 04:09:42;;;;;;;8.77;7.88;;;15.50;99.90;;;;;;4997244;28;20391;-82
2022/07/14 04:12:11;;;;;;;9.93;7.63;;;15.60;99.90;;;;;;4996618;28;20417;-82
2022/07/14 04:14:40;;;;;;;8.95;7.45;;;15.60;99.90;;;;;;4996583;28;20403;-82
2022/07/14 04:17:08;;;;;;;8.43;7.03;;;15.60;99.90;;;;;;4996659;28;20941;-83
2022/07/14 04:19:36;;;;;;;11.75;8.50;;;15.60;99.90;;;;;;5016045;28;20407;-83
2022/07/14 04:22:04;;;;;;;9.85;8.02;;;15.50;99.90;;;;;;4992337;28;20409;-82
2022/07/14 04:24:52;;;;;;;10.38;9.27;;;15.50;99.90;;;;;;5012477;28;20776;-82
2022/07/14 04:27:20;;;;;;;11.73;9.60;;;15.30;99.90;;;;;;5001440;28;20771;-82
2022/07/14 04:29:48;;;;;;;11.65;9.50;;;15.40;99.90;;;;;;5016899;28;20405;-83
2022/07/14 04:32:16;;;;;;;9.20;8.18;;;15.40;99.90;;;;;;4984366;28;20496;-83
2022/07/14 04:34:44;;;;;;;11.07;8.05;;;15.50;99.90;;;;;;5008613;28;20442;-83
2022/07/14 04:37:12;;;;;;;6.68;5.15;;;15.50;99.90;;;;;;5001193;28;20412;-82
2022/07/14 04:39:41;;;;;;;6.30;5.53;;;15.40;99.90;;;;;;5016342;28;20435;-82
2022/07/14 04:42:09;;;;;;;6.45;5.50;;;15.30;99.90;;;;;;4992866;28;20466;-83
2022/07/14 04:44:41;;;;;;;7.07;5.00;;;15.40;99.90;;;;;;4998549;28;20412;-82
2022/07/14 04:47:10;;;;;;;6.23;5.27;;;15.30;99.90;;;;;;5003715;28;20416;-83
2022/07/14 04:52:28;;;;;;;5.93;4.95;;;15.50;99.90;;;;;;5003508;28;20938;-82
2022/07/14 04:55:06;;;;;;;9.27;6.50;;;15.60;99.90;;;;;;4973814;28;20734;-82
2022/07/14 04:57:53;;;;;;;9.98;8.23;;;15.60;99.90;;;;;;4983789;28;20830;-82
2022/07/14 05:00:21;;;;;;;10.67;8.80;;;15.60;99.90;;;;;;4994800;28;20892;-82
2022/07/14 05:02:49;;;;;;;10.15;8.88;;;15.60;99.90;;;;;;4989439;28;20413;-82
2022/07/14 05:05:17;;;;;;;9.88;8.88;;;15.50;99.90;;;;;;5002603;28;20903;-82
2022/07/14 05:07:45;;;;;;;9.32;8.02;;;15.50;99.90;;;;;;4988002;28;20806;-81
2022/07/14 05:10:22;;;;;;;7.32;6.55;;;15.50;99.90;;;;;;4992377;28;20440;-83
2022/07/14 05:12:50;;;;;;;6.93;6.22;;;15.60;99.90;;;;;;4991993;28;20416;-83
2022/07/14 05:15:18;;;;;;;6.07;4.63;;;15.60;99.90;;;;;;4991839;28;20774;-82
2022/07/14 05:17:47;;;;;;;9.40;5.97;;;15.60;99.90;;;;;;4991692;28;20508;-81
2022/07/14 05:20:15;;;;;;;10.63;7.57;;;15.60;99.90;;;;;;4982959;28;20410;-82
2022/07/14 05:22:44;;;;;;;7.10;6.40;;;15.60;99.90;;;;;;5011599;28;20694;-83
2022/07/14 05:25:14;;;;;;;7.80;5.35;;;15.60;99.90;;;;;;4990371;28;20432;-83
2022/07/14 05:27:44;;;;;;;6.80;4.18;;;15.70;99.90;;;;;;5000195;28;20411;-83
2022/07/14 05:30:25;;;;;;;4.78;3.05;;;15.60;99.90;;;;;;4985304;28;20409;-82
2022/07/14 05:32:53;;;;;;;4.97;3.58;;;15.60;99.90;;;;;;5014169;28;20465;-83
2022/07/14 05:35:21;;;;;;;5.40;3.40;;;15.60;99.90;;;;;;5000232;28;20405;-83
2022/07/14 05:37:50;;;;;;;4.82;3.13;;;15.60;99.90;;;;;;4999090;28;20444;-83
2022/07/14 05:40:18;;;;;;;5.00;3.80;;;15.60;99.90;;;;;;4990209;28;20902;-83
2022/07/14 05:42:47;;;;;;;5.27;4.00;;;15.60;99.90;;;;;;5020230;28;20481;-82
2022/07/14 05:45:15;;;;;;;4.85;3.13;;;15.60;99.90;;;;;;5016448;28;20416;-82
2022/07/14 05:47:43;;;;;;;5.85;3.88;;;15.50;99.90;;;;;;4984215;28;20412;-83
2022/07/14 05:50:11;;;;;;;3.90;3.30;;;15.40;99.90;;;;;;5014174;28;20403;-82
2022/07/14 05:52:42;;;;;;;4.82;3.42;;;15.50;99.90;;;;;;4999961;28;20415;-82
2022/07/14 05:55:11;;;;;;;5.82;3.97;;;15.40;99.90;;;;;;4988596;28;20408;-82
2022/07/14 05:57:38;;;;;;;5.03;4.03;;;15.50;99.90;;;;;;4986048;28;20461;-83
2022/07/14 06:00:09;;;;;;;4.20;3.80;;;15.60;99.90;;;;;;5005352;28;20473;-83
2022/07/14 06:02:47;;;;;;;8.88;4.95;;;15.50;99.90;;;;;;4990466;28;20449;-83
2022/07/14 06:05:21;;;;;;;7.90;5.80;;;15.60;99.90;;;;;;4999653;28;20412;-82
2022/07/14 06:07:49;;;;;;;9.82;6.68;;;15.60;99.90;;;;;;4996123;28;20840;-83
2022/07/14 06:10:17;;;;;;;10.88;7.93;;;15.60;99.90;;;;;;4997565;28;20413;-83
2022/07/14 06:15:43;;;;;;;15.38;8.40;;;15.60;99.90;;;;;;4980890;28;20736;-83
2022/07/14 06:18:11;;;;;;;13.77;9.20;;;15.50;99.90;;;;;;4986014;28;20443;-83
2022/07/14 06:20:41;;;;;;;15.03;10.17;;;15.40;99.90;;;;;;4999013;28;20420;-83
2022/07/14 06:23:09;;;;;;;18.67;10.93;;;15.50;99.90;;;;;;5000561;28;20474;-82
2022/07/14 06:25:40;;;;;;;20.27;11.85;;;15.50;99.90;;;;;;4994982;28;20926;-83
2022/07/14 06:28:09;;;;;;;16.17;12.02;;;15.40;99.90;;;;;;4989073;28;20451;-82
2022/07/14 06:30:36;;;;;;;17.38;11.10;;;15.40;99.90;;;;;;5002727;28;20743;-84
2022/07/14 06:33:06;;;;;;;17.52;12.23;;;15.60;99.90;;;;;;5018602;28;20401;-83
2022/07/14 06:35:37;;;;;;;17.58;12.30;;;15.60;99.90;;;;;;5018141;28;20434;-83
2022/07/14 06:38:25;;;;;;;19.57;14.00;;;15.60;99.90;;;;;;5018718;28;20830;-83
2022/07/14 06:40:52;;;;;;;17.15;11.38;;;15.60;99.90;;;;;;5002686;28;20991;-82
2022/07/14 06:43:22;;;;;;;14.75;10.90;;;15.60;99.90;;;;;;4993791;28;20933;-83
2022/07/14 06:45:58;;;;;;;13.50;10.30;;;15.60;99.90;;;;;;4994317;28;20411;-83
2022/07/14 06:48:26;;;;;;;13.65;9.20;;;15.70;99.90;;;;;;4993596;28;20411;-83
2022/07/14 06:50:54;;;;;;;12.48;9.65;;;15.70;99.90;;;;;;4999396;28;21014;-83
2022/07/14 06:53:24;;;;;;;12.43;9.20;;;15.80;99.90;;;;;;5001530;28;20393;-83
2022/07/14 06:55:52;;;;;;;12.77;9.23;;;15.90;99.90;;;;;;5011818;28;20868;-83
2022/07/14 06:58:20;;;;;;;10.25;8.10;;;15.90;99.90;;;;;;5024901;28;20420;-83
2022/07/14 07:00:48;;;;;;;10.02;7.70;;;16.10;99.90;;;;;;5001085;28;20484;-83
2022/07/14 07:03:16;;;;;;;11.30;7.82;;;16.00;99.90;;;;;;5002145;28;20392;-83
2022/07/14 07:08:31;;;;;;;9.80;8.27;;;16.10;99.90;;;;;;5000500;28;20414;-79
2022/07/14 07:10:59;;;;;;;10.10;7.30;;;16.10;99.90;;;;;;4999918;28;20389;-83
2022/07/14 07:13:29;;;;;;;8.35;7.07;;;16.20;99.90;;;;;;4993394;28;20740;-82
2022/07/14 07:15:58;;;;;;;10.93;7.55;;;16.20;99.90;;;;;;5005067;28;20897;-83
2022/07/14 07:18:26;;;;;;;8.65;7.15;;;16.30;99.90;;;;;;5000883;28;20404;-83
2022/07/14 07:20:54;;;;;;;10.02;7.80;;;16.30;99.90;;;;;;5001357;28;20407;-83
2022/07/14 07:23:23;;;;;;;8.77;6.45;;;16.30;99.90;;;;;;5000505;28;20485;-82
2022/07/14 07:25:53;;;;;;;8.65;6.80;;;16.40;99.90;;;;;;4997478;28;20410;-83
2022/07/14 07:28:22;;;;;;;8.63;6.80;;;16.50;99.90;;;;;;4999576;28;20500;-83
2022/07/14 07:30:51;;;;;;;11.33;6.43;;;16.50;99.90;;;;;;5001262;28;20407;-82
2022/07/14 07:33:19;;;;;;;8.35;6.35;;;16.50;99.90;;;;;;5007132;28;20429;-82
2022/07/14 07:35:48;;;;;;;10.20;7.15;;;16.50;99.90;;;;;;5004009;28;20399;-83
2022/07/14 07:38:20;;;;;;;8.88;7.10;;;16.50;99.90;;;;;;5004015;28;20474;-82
2022/07/14 07:40:53;;;;;;;8.70;6.85;;;16.50;99.90;;;;;;4995788;28;20403;-82
2022/07/14 07:43:23;;;;;;;9.40;7.57;;;16.50;99.90;;;;;;5001308;28;20418;-82
2022/07/14 07:45:53;;;;;;;8.82;6.70;;;16.50;99.90;;;;;;5013285;28;20414;-78
2022/07/14 07:48:24;;;;;;;9.53;7.23;;;16.60;99.90;;;;;;5008759;28;20415;-83
2022/07/14 07:50:55;;;;;;;9.43;7.45;;;16.80;99.90;;;;;;5011790;28;20448;-83
2022/07/14 07:53:26;;;;;;;8.88;7.32;;;16.80;99.90;;;;;;5003204;28;20424;-84
2022/07/14 07:55:56;;;;;;;11.02;8.18;;;16.80;99.90;;;;;;4996534;28;20425;-80
2022/07/14 07:58:26;;;;;;;10.10;7.23;;;16.80;99.90;;;;;;5006495;28;20896;-82
2022/07/14 08:00:55;;;;;;;11.18;7.78;;;16.90;99.90;;;;;;5000017;28;20396;-84
2022/07/14 08:03:23;;;;;;;9.53;7.30;;;16.90;99.90;;;;;;4996096;28;20891;-81
2022/07/14 08:05:53;;;;;;;9.48;7.40;;;17.00;99.90;;;;;;5007212;28;20403;-80
2022/07/14 08:08:42;;;;;;;9.13;7.43;;;17.00;99.90;;;;;;5008236;28;20399;-84
2022/07/14 08:11:10;;;;;;;10.00;7.40;;;17.00;99.90;;;;;;5007407;28;20430;-83
2022/07/14 08:13:38;;;;;;;9.38;7.32;;;17.00;99.90;;;;;;5003917;28;20453;-84
2022/07/14 08:16:05;;;;;;;8.95;6.72;;;17.10;99.90;;;;;;5004100;28;20759;-83
2022/07/14 08:18:33;;;;;;;9.27;6.90;;;17.20;99.90;;;;;;5004508;28;20411;-82
2022/07/14 08:21:01;;;;;;;9.00;6.50;;;17.30;99.90;;;;;;5005752;28;20415;-83
2022/07/14 08:23:28;;;;;;;8.55;6.50;;;17.40;99.90;;;;;;5003334;28;20404;-83
2022/07/14 08:25:57;;;;;;;9.57;6.97;;;17.60;99.90;;;;;;5000316;28;20411;-83
2022/07/14 08:28:24;;;;;;;9.80;7.18;;;17.60;99.90;;;;;;5003663;28;20740;-83
2022/07/14 08:30:52;;;;;;;9.20;7.22;;;17.60;99.90;;;;;;5004100;28;20909;-83
2022/07/14 08:33:20;;;;;;;9.18;6.50;;;17.70;99.90;;;;;;5002982;28;20410;-83
2022/07/14 08:35:48;;;;;;;11.00;7.22;;;17.80;99.90;;;;;;5004948;28;20395;-83
2022/07/14 08:38:15;;;;;;;8.73;6.60;;;17.80;99.90;;;;;;5003769;28;20428;-82
2022/07/14 08:40:43;;;;;;;8.65;6.53;;;17.80;99.90;;;;;;5003134;28;20438;-82
2022/07/14 08:43:12;;;;;;;7.80;6.43;;;17.80;99.90;;;;;;5017961;28;20441;-80
2022/07/14 08:45:43;;;;;;;7.17;5.73;;;17.90;99.90;;;;;;5006426;28;20477;-83
2022/07/14 08:48:11;;;;;;;7.70;6.03;;;17.90;99.90;;;;;;5005206;28;20422;-83
2022/07/14 08:50:39;;;;;;;7.93;5.83;;;17.90;99.90;;;;;;5012054;28;20470;-83
2022/07/14 08:53:09;;;;;;;7.30;5.65;;;18.10;99.90;;;;;;5003968;28;20393;-81
2022/07/14 08:55:36;;;;;;;8.68;6.10;;;18.10;99.90;;;;;;5011559;28;20765;-81
2022/07/14 08:58:04;;;;;;;11.25;6.40;;;18.20;99.90;;;;;;5006896;28;20480;-82
2022/07/14 09:00:32;;;;;;;7.80;6.18;;;18.20;99.90;;;;;;5019929;28;20739;-81
2022/07/14 09:03:00;;;;;;;7.03;5.93;;;18.20;99.90;;;;;;5002439;28;20441;-82
2022/07/14 09:05:48;;;;;;;8.10;5.78;;;18.20;99.90;;;;;;5000801;28;20486;-82
2022/07/14 09:08:19;;;;;;;8.07;5.10;;;18.30;99.90;;;;;;5020243;28;20403;-83
2022/07/14 09:10:47;;;;;;;8.43;5.05;;;18.30;99.90;;;;;;5020248;28;20673;-81
2022/07/14 09:13:32;;;;;;;7.65;5.00;;;18.30;99.90;;;;;;4998236;28;20415;-83
2022/07/14 09:16:33;;;;;;;7.40;4.90;;;18.30;99.90;;;;;;4998503;28;20392;-81
2022/07/14 09:19:08;;;;;;;5.45;4.32;;;18.20;99.90;;;;;;4983290;28;20902;-83
2022/07/14 09:21:37;;;;;;;6.75;4.25;;;18.00;99.90;;;;;;5011855;28;20391;-83
2022/07/14 09:24:09;;;;;;;6.00;4.17;;;17.90;99.90;;;;;;5004506;28;20434;-82
2022/07/14 09:26:52;;;;;;;5.60;3.90;;;17.80;99.90;;;;;;5002424;28;21015;-83
2022/07/14 09:29:29;;;;;;;5.38;3.30;;;17.80;99.90;;;;;;5001400;28;20403;-82
2022/07/14 09:31:57;;;;;;;5.63;3.13;;;17.80;99.90;;;;;;5002788;28;20410;-82
2022/07/14 09:34:31;;;;;;;5.40;3.38;;;17.90;99.90;;;;;;5004181;28;20405;-83
2022/07/14 09:37:16;;;;;;;4.55;3.00;;;18.00;99.90;;;;;;5002748;28;20777;-83
2022/07/14 09:39:56;;;;;;;4.87;3.03;;;18.30;99.90;;;;;;5003894;28;20531;-80
2022/07/14 09:42:47;;;;;;;6.93;3.10;;;18.30;99.90;;;;;;5006280;28;20400;-80
2022/07/14 09:45:16;;;;;;;4.78;3.25;;;18.30;99.90;;;;;;5000167;28;20501;-82
2022/07/14 09:47:54;;;;;;;5.57;2.63;;;18.30;99.90;;;;;;5003280;28;20496;-82
2022/07/14 09:50:50;;;;;;;5.47;2.70;;;18.10;99.90;;;;;;4992582;28;20411;-81
2022/07/14 09:53:28;;;;;;;4.45;2.13;;;17.90;99.90;;;;;;5005316;28;20402;-82
2022/07/14 09:55:57;;;;;;;4.47;2.20;;;17.70;99.90;;;;;;5007697;28;20403;-83
2022/07/14 09:58:33;;;;;;;4.82;2.38;;;17.60;99.90;;;;;;5001792;28;20867;-83
2022/07/14 10:01:10;;;;;;;7.17;2.30;;;17.50;99.90;;;;;;5003342;28;20409;-82
2022/07/14 10:03:40;;;;;;;5.80;2.40;;;17.40;99.90;;;;;;5006043;28;20405;-82
2022/07/14 10:06:09;;;;;;;5.33;2.20;;;17.40;99.90;;;;;;5006509;28;20391;-82
2022/07/14 10:08:59;;;;;;;5.63;2.40;;;17.60;99.90;;;;;;5008500;28;20442;-83
2022/07/14 10:11:30;;;;;;;5.80;2.13;;;18.00;99.90;;;;;;5011372;28;20421;-82
2022/07/14 10:13:59;;;;;;;4.18;2.08;;;18.30;99.90;;;;;;5003272;28;20409;-81
2022/07/14 10:16:34;;;;;;;5.47;2.13;;;18.50;99.90;;;;;;5003371;28;20404;-82
2022/07/14 10:19:04;;;;;;;6.70;2.00;;;18.70;99.90;;;;;;5001895;28;20913;-83
2022/07/14 10:21:45;;;;;;;7.77;2.20;;;18.80;99.90;;;;;;5003334;28;20416;-82
2022/07/14 10:24:14;;;;;;;6.38;2.10;;;19.00;99.90;;;;;;5007714;28;20397;-82
2022/07/14 10:26:42;;;;;;;6.90;2.10;;;19.10;99.90;;;;;;4985309;28;20412;-83
2022/07/14 10:29:10;;;;;;;6.43;2.10;;;19.20;99.90;;;;;;4984217;28;20408;-82
2022/07/14 10:31:52;;;;;;;7.10;1.50;;;19.20;99.90;;;;;;4982740;28;20396;-82
2022/07/14 10:34:54;;;;;;;6.13;1.80;;;19.10;99.90;;;;;;4982845;28;20404;-82
2022/07/14 10:37:50;;;;;;;4.63;1.40;;;19.00;99.90;;;;;;4998913;28;20929;-82
2022/07/14 10:40:45;;;;;;;4.88;1.52;;;18.90;99.90;;;;;;4999241;28;20434;-83
2022/07/14 10:43:17;;;;;;;4.53;1.20;;;18.90;99.90;;;;;;5000974;28;20409;-82
2022/07/14 10:45:49;;;;;;;4.90;1.23;;;19.00;99.90;;;;;;4998254;28;20403;-82
2022/07/14 10:48:35;;;;;;;3.78;1.30;;;19.00;99.90;;;;;;4981029;28;20427;-82
2022/07/14 10:51:21;;;;;;;3.65;1.27;;;19.10;99.90;;;;;;4982971;28;20475;-82
2022/07/14 10:54:34;;;;;;;3.78;1.45;;;19.30;99.90;;;;;;4986179;28;20840;-80
2022/07/14 10:57:17;;;;;;;3.00;1.00;;;19.40;99.90;;;;;;4982443;28;20848;-82
2022/07/14 10:59:48;;;;;;;2.67;1.10;;;19.30;99.90;;;;;;4981797;28;20436;-82
2022/07/14 11:02:18;;;;;;;2.45;0.90;;;19.30;99.90;;;;;;5006671;28;20409;-82
2022/07/14 11:05:01;;;;;;;4.30;1.00;;;19.20;99.90;;;;;;4990389;28;20405;-82
2022/07/14 11:08:09;;;;;;;3.30;1.10;;;19.30;99.90;;;;;;4990480;28;20408;-82
2022/07/14 11:10:36;;;;;;;4.55;1.05;;;19.40;99.90;;;;;;4987048;28;20930;-81
2022/07/14 11:13:04;;;;;;;2.38;0.70;;;19.50;99.90;;;;;;4990885;28;20397;-81
2022/07/14 11:15:59;;;;;;;2.00;0.80;;;19.50;99.90;;;;;;4989216;28;20410;-82
2022/07/14 11:18:36;;;;;;;3.28;0.80;;;19.60;99.90;;;;;;4990818;28;20829;-81
2022/07/14 11:21:17;;;;;;;2.78;0.80;;;19.50;99.90;;;;;;4987074;28;20451;-82
2022/07/14 11:23:48;;;;;;;2.85;0.80;;;19.60;99.90;;;;;;5000584;28;20892;-81
2022/07/14 11:26:44;;;;;;;3.00;0.68;;;19.70;99.90;;;;;;5005437;28;20807;-82
2022/07/14 11:29:30;;;;;;;3.05;0.80;;;19.90;99.90;;;;;;4998134;28;20413;-82
2022/07/14 11:31:58;;;;;;;1.45;0.60;;;20.00;99.90;;;;;;4998876;28;20831;-80
2022/07/14 11:37:21;;;;;;;2.63;0.63;;;20.10;99.90;;;;;;5004354;28;20419;-82
2022/07/14 11:40:47;;;;;;;2.25;0.93;;;20.20;99.90;;;;;;4991258;28;20400;-82
2022/07/14 11:43:30;;;;;;;2.28;0.60;;;20.30;99.90;;;;;;5014690;28;20774;-82
2022/07/14 11:46:06;;;;;;;2.42;0.60;;;20.30;99.90;;;;;;4993600;28;20478;-82
2022/07/14 11:48:37;;;;;;;1.87;0.60;;;20.40;99.90;;;;;;5005069;28;20403;-80
2022/07/14 11:51:06;;;;;;;1.55;0.73;;;20.60;99.90;;;;;;5000928;28;20412;-81
2022/07/14 11:53:36;;;;;;;3.92;0.90;;;20.60;99.90;;;;;;5015937;28;20404;-81
2022/07/14 11:56:06;;;;;;;3.05;0.70;;;20.70;99.90;;;;;;5007481;28;20383;-80
2022/07/14 11:58:39;;;;;;;1.38;0.70;;;20.70;99.90;;;;;;5005212;28;20414;-82
2022/07/14 12:01:08;;;;;;;3.17;0.80;;;20.80;99.90;;;;;;4998663;28;20422;-81
2022/07/14 12:03:37;;;;;;;4.75;0.80;;;20.80;99.90;;;;;;5001119;28;20900;-82
2022/07/14 12:06:05;;;;;;;2.50;0.77;;;20.90;99.90;;;;;;4993153;28;20852;-81
2022/07/14 12:08:39;;;;;;;2.88;0.77;;;21.10;99.90;;;;;;4993029;28;20508;-83
2022/07/14 12:11:11;;;;;;;2.72;0.82;;;21.00;99.90;;;;;;5000312;28;20440;-82
2022/07/14 12:13:46;;;;;;;2.33;0.90;;;20.60;99.90;;;;;;5004086;28;20405;-80
2022/07/14 12:16:15;;;;;;;2.70;0.73;;;20.10;99.90;;;;;;4999716;28;20884;-82
2022/07/14 12:18:43;;;;;;;2.53;0.77;;;20.20;99.90;;;;;;5001012;28;20419;-83
2022/07/14 12:21:11;;;;;;;1.60;0.70;;;20.40;99.90;;;;;;4998162;28;20781;-82
2022/07/14 12:23:53;;;;;;;2.53;0.70;;;20.50;99.90;;;;;;5007905;28;20410;-83
2022/07/14 12:26:23;;;;;;;3.35;0.60;;;20.60;99.90;;;;;;4998941;28;20506;-82
2022/07/14 12:28:54;;;;;;;2.00;0.75;;;20.80;99.90;;;;;;5006925;28;20883;-82
2022/07/14 12:31:24;;;;;;;1.80;0.75;;;20.90;99.90;;;;;;4994518;28;20399;-82
2022/07/14 12:33:56;;;;;;;2.65;0.90;;;21.00;99.90;;;;;;5021951;28;20411;-81
2022/07/14 12:36:27;;;;;;;1.83;0.60;;;21.00;99.90;;;;;;5001212;28;20407;-83
2022/07/14 12:38:55;;;;;;;2.88;0.70;;;21.20;99.90;;;;;;5005475;28;20424;-82
2022/07/14 12:41:25;;;;;;;2.90;0.85;;;21.10;99.90;;;;;;5022569;28;20765;-82
2022/07/14 12:43:53;;;;;;;2.40;0.77;;;20.70;99.90;;;;;;5004980;28;20888;-82
2022/07/14 12:46:23;;;;;;;3.22;1.00;;;20.40;99.90;;;;;;5026266;28;20410;-82
2022/07/14 12:48:54;;;;;;;3.13;0.77;;;20.10;99.90;;;;;;5006857;28;20415;-80
2022/07/14 12:51:36;;;;;;;3.05;0.90;;;20.00;99.90;;;;;;5014203;28;20466;-82
2022/07/14 12:54:33;;;;;;;2.45;1.00;;;19.90;99.90;;;;;;5002778;28;20769;-82
2022/07/14 12:57:23;;;;;;;2.83;0.90;;;19.90;99.90;;;;;;5002939;28;20420;-83
2022/07/14 12:59:52;;;;;;;2.90;0.90;;;19.90;99.90;;;;;;5003806;28;20752;-83
2022/07/14 13:02:24;;;;;;;4.03;0.90;;;19.70;99.90;;;;;;5003263;28;20402;-82
2022/07/14 13:05:01;;;;;;;2.93;0.90;;;19.60;99.90;;;;;;5002755;28;20409;-83
2022/07/14 13:07:32;;;;;;;3.03;0.80;;;19.40;99.90;;;;;;5021335;28;20447;-82
2022/07/14 13:10:18;;;;;;;2.40;0.80;;;19.30;99.90;;;;;;4995630;28;20461;-82
2022/07/14 13:12:54;;;;;;;2.35;0.73;;;19.20;99.90;;;;;;4995950;28;20385;-82
2022/07/14 13:15:27;;;;;;;1.55;0.95;;;19.10;99.90;;;;;;5020271;28;20403;-82
2022/07/14 13:18:07;;;;;;;2.10;0.67;;;18.90;99.90;;;;;;4996465;28;20406;-82
2022/07/14 13:20:47;;;;;;;2.00;0.70;;;18.80;99.90;;;;;;5005310;28;20410;-81
2022/07/14 13:23:35;;;;;;;2.22;0.90;;;18.80;99.90;;;;;;5024466;28;20403;-81
2022/07/14 13:26:15;;;;;;;1.08;0.52;;;18.80;99.90;;;;;;4983393;28;20462;-83